La Riviere, Canada
Current Conditions -  °F | °C
As of 11:55 PM on Thursday 27 Nov 2014 (Local Time) from KD55 Reporting Station
Overcast Overcast  
Wind Chill: -8°   Ceiling: 2400
Heat Index:   Visibility: 10mi
Dew Point:   Wind: 10mph
Humidity: 79%   Direction: 120°ESE
Pressure: 30"   Gusts: NA
Location:  49.24°N, 98.68°W
Report Text: KD55 280555Z AUTO 12009KT 10SM FEW001 BKN024 OVC047 M14/M17 A3000 RMK AO2
Loading
Personal Weather Stations






























Interactive Weather Map New forecast layout! Learn more

10-Day Weather Forecast

Advertisements
Track Severe Weather on mobile